createdAt,value
2018-08-28T00:01:29.667Z,3.40
2018-08-28T00:05:32.800Z,3.67
2018-08-28T00:09:36.268Z,4.23
2018-08-28T00:13:39.532Z,3.80
2018-08-28T00:17:42.797Z,4.40
2018-08-28T00:21:45.897Z,4.10
2018-08-28T00:25:49.121Z,3.90
2018-08-28T00:29:52.000Z,3.60
2018-08-28T00:33:55.219Z,4.87
2018-08-28T00:37:58.312Z,4.10
2018-08-28T00:42:01.469Z,4.70
2018-08-28T00:46:06.054Z,4.03
2018-08-28T00:50:09.290Z,4.40
2018-08-28T00:54:12.426Z,3.67
2018-08-28T00:58:15.576Z,4.37
2018-08-28T01:02:18.448Z,3.77
2018-08-28T01:06:21.609Z,3.93
2018-08-28T01:10:24.702Z,3.90
2018-08-28T01:14:28.126Z,5.07
2018-08-28T01:18:31.219Z,4.17
2018-08-28T01:22:34.447Z,4.60
2018-08-28T01:26:37.592Z,4.47
2018-08-28T01:30:40.740Z,4.80
2018-08-28T01:34:43.828Z,3.73
2018-08-28T01:38:46.928Z,5.23
2018-08-28T01:42:50.017Z,4.73
2018-08-28T01:46:53.243Z,5.97
2018-08-28T01:50:56.119Z,5.67
2018-08-28T01:54:59.240Z,5.57
2018-08-28T01:59:02.384Z,5.60
2018-08-28T02:03:05.748Z,4.90
2018-08-28T02:07:08.624Z,6.60
2018-08-28T02:11:11.862Z,5.10
2018-08-28T02:15:15.072Z,5.33
2018-08-28T02:19:18.071Z,6.00
2018-08-28T02:23:21.170Z,5.77
2018-08-28T02:27:24.347Z,5.30
2018-08-28T02:31:27.428Z,6.13
2018-08-28T02:35:30.628Z,5.57
2018-08-28T02:39:33.491Z,6.47
2018-08-28T02:43:36.749Z,6.37
2018-08-28T02:47:39.836Z,5.60
2018-08-28T02:51:42.993Z,6.53
2018-08-28T02:55:46.129Z,5.83
2018-08-28T02:59:49.271Z,6.47
2018-08-28T03:03:52.377Z,6.40
2018-08-28T03:07:56.132Z,7.10
2018-08-28T03:11:59.224Z,7.10
2018-08-28T03:16:04.140Z,6.03
2018-08-28T03:20:07.285Z,6.50
2018-08-28T03:24:10.424Z,7.10
2018-08-28T03:28:13.520Z,7.27
2018-08-28T03:32:16.433Z,7.00
2018-08-28T03:36:19.528Z,7.30
2018-08-28T03:40:22.664Z,7.30
2018-08-28T03:44:25.802Z,6.47
2018-08-28T03:48:28.929Z,6.63
2018-08-28T03:52:32.028Z,6.97
2018-08-28T03:56:35.169Z,7.87
2018-08-28T04:00:38.265Z,7.13
2018-08-28T04:04:41.417Z,8.27
2018-08-28T04:08:44.511Z,8.13
2018-08-28T04:12:48.732Z,8.67
2018-08-28T04:16:52.164Z,8.23
2018-08-28T04:20:55.641Z,6.60
2018-08-28T04:24:58.744Z,8.20
2018-08-28T04:29:03.287Z,7.30
2018-08-28T04:33:06.199Z,8.47
2018-08-28T04:37:09.693Z,7.90
2018-08-28T04:41:12.788Z,6.87
2018-08-28T04:45:16.032Z,8.00
2018-08-28T04:49:19.148Z,7.67
2018-08-28T04:53:22.283Z,8.80
2018-08-28T04:57:25.376Z,7.20
2018-08-28T05:01:28.576Z,8.40
2018-08-28T05:05:31.689Z,7.93
2018-08-28T05:09:34.800Z,9.77
2018-08-28T05:13:37.904Z,8.43
2018-08-28T05:17:41.310Z,7.90
2018-08-28T05:21:44.204Z,9.13
2018-08-28T05:25:47.407Z,9.03
2018-08-28T05:29:50.532Z,8.60
2018-08-28T05:33:53.990Z,9.50
2018-08-28T05:37:57.110Z,9.03
2018-08-28T05:42:00.308Z,8.90
2018-08-28T05:46:03.396Z,7.27
2018-08-28T05:50:06.652Z,7.97
2018-08-28T05:54:09.745Z,8.50
2018-08-28T05:58:12.884Z,7.97
2018-08-28T06:02:16.261Z,7.60
2018-08-28T06:06:19.553Z,6.83
2018-08-28T06:10:22.684Z,8.57
2018-08-28T06:14:25.836Z,9.43
2018-08-28T06:18:29.159Z,8.57
2018-08-28T06:22:32.268Z,9.70
2018-08-28T06:26:35.591Z,9.03
2018-08-28T06:30:38.569Z,8.70
2018-08-28T06:34:41.792Z,9.63
2018-08-28T06:38:44.912Z,10.17
2018-08-28T06:42:48.120Z,9.50
2018-08-28T06:46:51.216Z,9.60
2018-08-28T06:50:54.360Z,9.67
2018-08-28T06:54:57.469Z,9.57
2018-08-28T06:59:00.387Z,9.27
2018-08-28T07:03:03.487Z,10.10
2018-08-28T07:07:07.057Z,9.73
2018-08-28T07:11:10.115Z,8.93
2018-08-28T07:15:13.312Z,9.90
2018-08-28T07:19:16.476Z,10.00
2018-08-28T07:23:19.616Z,9.80
2018-08-28T07:27:22.712Z,10.43
2018-08-28T07:31:25.890Z,10.77
2018-08-28T07:35:28.942Z,11.80
2018-08-28T07:39:31.952Z,8.97
2018-08-28T07:43:35.046Z,9.73
2018-08-28T07:47:38.572Z,9.77
2018-08-28T07:51:41.680Z,9.90
2018-08-28T07:55:44.808Z,8.60
2018-08-28T07:59:47.900Z,8.90
2018-08-28T08:03:51.102Z,8.40
2018-08-28T08:07:54.188Z,9.20
2018-08-28T08:11:57.380Z,9.43
2018-08-28T08:16:00.504Z,8.70
2018-08-28T08:20:03.849Z,7.93
2018-08-28T08:24:07.071Z,8.60
2018-08-28T08:28:10.875Z,8.87
2018-08-28T08:32:13.848Z,9.37
2018-08-28T08:36:16.980Z,9.47
2018-08-28T08:40:20.100Z,8.47
2018-08-28T08:44:23.308Z,8.60
2018-08-28T08:48:26.424Z,7.77
2018-08-28T08:52:29.664Z,7.67
2018-08-28T08:56:32.763Z,7.63
2018-08-28T09:00:35.868Z,7.97
2018-08-28T09:04:38.947Z,8.30
2018-08-28T09:08:42.514Z,8.83
2018-08-28T09:12:45.600Z,8.80
2018-08-28T09:16:48.639Z,8.60
2018-08-28T09:20:51.824Z,9.77
2018-08-28T09:24:54.961Z,8.70
2018-08-28T09:28:58.060Z,9.10
2018-08-28T09:33:01.221Z,9.67
2018-08-28T09:37:04.632Z,8.50
2018-08-28T09:41:07.760Z,7.30
2018-08-28T09:45:10.876Z,7.30
